Time;durP1;ratioP1;P1;durP2;ratioP2;P2;SDS_P1;SDS_P2;PMS_P1;PMS_P2;Temp;Humidity;BMP_temperature;BMP_pressure;BME280_temperature;BME280_humidity;BME280_pressure;Samples;Min_cycle;Max_cycle;Signal;HPM_P1;HPM_P2
2023/11/01 00:00:20;;;;;;;11.98;5.82;;;12.00;98.40;;;;;;5014202;28;20090;-85
2023/11/01 00:02:47;;;;;;;12.05;5.93;;;11.90;98.50;;;;;;5014275;28;20039;-86
2023/11/01 00:05:13;;;;;;;13.13;6.28;;;11.90;98.50;;;;;;5004784;28;20372;-84
2023/11/01 00:07:39;;;;;;;11.27;5.20;;;12.00;98.60;;;;;;4992938;28;20050;-80
2023/11/01 00:10:06;;;;;;;11.95;5.45;;;12.00;98.70;;;;;;5003394;28;20500;-82
2023/11/01 00:12:32;;;;;;;13.15;6.15;;;12.00;98.70;;;;;;5002717;28;20041;-80
2023/11/01 00:14:58;;;;;;;12.07;6.15;;;12.00;98.80;;;;;;5005715;28;20121;-80
2023/11/01 00:17:24;;;;;;;14.80;6.15;;;12.00;98.80;;;;;;5009259;28;20033;-86
2023/11/01 00:19:50;;;;;;;13.30;7.78;;;11.90;98.90;;;;;;5008138;28;20034;-87
2023/11/01 00:22:17;;;;;;;15.73;9.77;;;11.90;98.90;;;;;;5003668;28;20036;-87
2023/11/01 00:24:43;;;;;;;15.95;9.38;;;11.90;99.00;;;;;;5016434;28;20423;-89
2023/11/01 00:27:09;;;;;;;17.20;9.35;;;12.00;99.10;;;;;;5009891;28;20037;-85
2023/11/01 00:29:35;;;;;;;18.38;9.18;;;12.00;99.20;;;;;;5019826;28;20063;-88
2023/11/01 00:32:01;;;;;;;15.35;8.50;;;11.90;99.20;;;;;;5016920;28;20030;-85
2023/11/01 00:34:27;;;;;;;15.68;7.80;;;12.00;99.30;;;;;;5019874;28;20518;-83
2023/11/01 00:36:52;;;;;;;13.15;7.22;;;11.90;99.30;;;;;;5000555;28;20032;-84
2023/11/01 00:39:18;;;;;;;12.18;7.70;;;11.90;99.40;;;;;;4999350;28;20037;-86
2023/11/01 00:41:44;;;;;;;14.18;7.18;;;12.00;99.40;;;;;;4994995;28;20033;-88
2023/11/01 00:44:10;;;;;;;11.27;7.28;;;12.10;99.50;;;;;;5011802;28;20032;-86
2023/11/01 00:46:36;;;;;;;10.70;6.88;;;12.10;99.50;;;;;;5022952;28;20026;-83
2023/11/01 00:49:02;;;;;;;11.82;7.15;;;12.10;99.50;;;;;;5021518;28;20034;-84
2023/11/01 00:51:27;;;;;;;12.02;7.03;;;12.10;99.50;;;;;;5017482;28;20084;-83
2023/11/01 00:53:53;;;;;;;11.68;6.20;;;12.10;99.60;;;;;;5027082;28;20097;-83
2023/11/01 00:56:19;;;;;;;14.23;6.90;;;12.20;99.70;;;;;;5012543;28;20054;-88
2023/11/01 00:58:44;;;;;;;11.45;6.75;;;12.20;99.80;;;;;;5001914;28;20021;-84
2023/11/01 01:01:10;;;;;;;14.18;6.90;;;12.20;99.90;;;;;;5002645;28;20129;-89
2023/11/01 01:03:36;;;;;;;12.98;7.00;;;12.30;99.90;;;;;;5019885;28;20033;-89
2023/11/01 01:06:02;;;;;;;14.00;8.05;;;12.30;99.90;;;;;;5015134;28;20068;-86
2023/11/01 01:08:27;;;;;;;16.30;8.05;;;12.30;99.90;;;;;;4997135;28;20048;-87
2023/11/01 01:10:53;;;;;;;13.50;8.23;;;12.30;99.90;;;;;;4997788;28;20033;-86
2023/11/01 01:13:19;;;;;;;12.77;7.85;;;12.40;99.90;;;;;;5022226;28;20377;-89
2023/11/01 01:15:45;;;;;;;17.83;9.05;;;12.40;99.90;;;;;;5027213;28;20057;-84
2023/11/01 01:18:14;;;;;;;14.10;7.35;;;12.40;99.90;;;;;;5019385;28;20030;-84
2023/11/01 01:20:40;;;;;;;19.30;8.38;;;12.50;99.90;;;;;;5013883;28;20026;-87
2023/11/01 01:23:06;;;;;;;15.13;7.43;;;12.40;99.90;;;;;;5025494;28;20483;-88
2023/11/01 01:25:31;;;;;;;20.08;8.30;;;12.50;99.90;;;;;;5025296;28;20524;-85
2023/11/01 01:27:57;;;;;;;18.42;7.65;;;12.60;99.90;;;;;;5017189;28;20049;-87
2023/11/01 01:30:22;;;;;;;17.20;7.70;;;12.60;99.90;;;;;;5010735;28;20037;-83
2023/11/01 01:32:48;;;;;;;16.13;6.45;;;12.60;99.90;;;;;;5019312;28;20060;-85
2023/11/01 01:35:16;;;;;;;18.25;6.18;;;12.60;99.90;;;;;;5022755;28;20046;-88
2023/11/01 01:37:41;;;;;;;18.38;5.88;;;12.60;99.90;;;;;;5006138;28;20106;-85
2023/11/01 01:40:08;;;;;;;22.75;6.90;;;12.70;99.90;;;;;;5014366;28;20045;-87
2023/11/01 01:42:33;;;;;;;13.60;4.88;;;12.70;99.90;;;;;;5041041;28;20030;-87
2023/11/01 01:44:59;;;;;;;19.23;5.40;;;12.70;99.90;;;;;;5029589;28;20151;-87
2023/11/01 01:47:25;;;;;;;18.63;5.78;;;12.80;99.90;;;;;;5024315;28;20611;-89
2023/11/01 01:49:52;;;;;;;18.13;6.13;;;12.80;99.90;;;;;;5019336;28;20153;-89
2023/11/01 01:52:19;;;;;;;14.15;4.93;;;12.80;99.90;;;;;;5014306;28;20046;-87
2023/11/01 01:54:44;;;;;;;17.33;5.32;;;12.80;99.90;;;;;;5008232;28;20046;-88
2023/11/01 01:57:10;;;;;;;16.42;4.95;;;12.80;99.90;;;;;;5002547;28;20538;-87
2023/11/01 01:59:36;;;;;;;16.15;5.60;;;12.80;99.90;;;;;;5005470;28;20026;-86
2023/11/01 02:02:02;;;;;;;14.55;5.03;;;12.90;99.90;;;;;;5005445;28;20426;-86
2023/11/01 02:04:28;;;;;;;24.52;5.40;;;12.90;99.90;;;;;;5010875;28;20042;-88
2023/11/01 02:06:54;;;;;;;17.77;5.30;;;12.90;99.90;;;;;;5015035;28;20570;-89
2023/11/01 02:09:19;;;;;;;18.13;4.78;;;12.90;99.90;;;;;;5007043;28;20513;-86
2023/11/01 02:11:45;;;;;;;19.13;4.38;;;12.90;99.90;;;;;;5008508;28;20034;-85
2023/11/01 02:14:11;;;;;;;19.63;5.15;;;12.90;99.90;;;;;;5010474;28;20470;-90
2023/11/01 02:16:38;;;;;;;19.63;4.38;;;12.90;99.90;;;;;;5009842;28;20037;-87
2023/11/01 02:19:08;;;;;;;17.52;4.32;;;12.90;99.90;;;;;;5007195;28;20084;-90
2023/11/01 02:21:34;;;;;;;18.85;5.53;;;13.00;99.90;;;;;;5016706;28;20106;-89
2023/11/01 02:24:00;;;;;;;18.10;4.38;;;13.00;99.90;;;;;;5022725;28;20032;-89
2023/11/01 02:26:26;;;;;;;15.55;4.72;;;12.90;99.90;;;;;;5021424;28;20479;-87
2023/11/01 02:28:51;;;;;;;16.80;4.32;;;12.90;99.90;;;;;;5009883;28;20038;-86
2023/11/01 02:31:17;;;;;;;18.60;4.63;;;12.90;99.90;;;;;;5007055;28;20034;-87
2023/11/01 02:33:43;;;;;;;21.25;4.47;;;13.00;99.90;;;;;;5002021;28;20042;-90
2023/11/01 02:36:09;;;;;;;18.75;4.70;;;13.00;99.90;;;;;;5002148;28;20045;-90
2023/11/01 02:38:35;;;;;;;20.08;5.15;;;12.90;99.90;;;;;;5001939;28;20030;-89
2023/11/01 02:41:00;;;;;;;18.30;4.13;;;13.00;99.90;;;;;;4997606;28;20031;-85
2023/11/01 02:43:27;;;;;;;17.27;4.30;;;13.00;99.80;;;;;;5018236;28;20064;-88
2023/11/01 02:45:53;;;;;;;13.80;3.60;;;13.00;99.80;;;;;;5019515;28;20103;-86
2023/11/01 02:48:19;;;;;;;14.40;3.92;;;13.00;99.80;;;;;;5002954;28;20026;-91
2023/11/01 02:50:44;;;;;;;19.50;5.28;;;13.00;99.80;;;;;;4999891;28;20026;-86
2023/11/01 02:53:10;;;;;;;17.52;4.13;;;13.00;99.60;;;;;;5000294;28;20030;-84
2023/11/01 02:55:36;;;;;;;14.43;3.75;;;13.00;99.60;;;;;;4997594;28;20038;-87
2023/11/01 02:58:02;;;;;;;12.77;4.00;;;13.00;99.60;;;;;;4997249;28;20045;-89
2023/11/01 03:00:28;;;;;;;15.00;4.32;;;13.00;99.50;;;;;;4999932;28;20401;-88
2023/11/01 03:02:53;;;;;;;20.85;4.45;;;13.00;99.50;;;;;;5009399;28;20113;-84
2023/11/01 03:05:20;;;;;;;15.90;4.18;;;13.00;99.40;;;;;;5014612;28;20034;-89
2023/11/01 03:07:45;;;;;;;17.17;3.90;;;13.00;99.40;;;;;;5002490;28;20478;-89
2023/11/01 03:10:12;;;;;;;14.82;4.22;;;13.00;99.30;;;;;;5001646;28;20038;-86
2023/11/01 03:12:38;;;;;;;17.23;4.22;;;12.90;99.20;;;;;;5025074;28;20658;-89
2023/11/01 03:15:07;;;;;;;14.10;4.32;;;13.00;99.20;;;;;;5017180;28;20072;-85
2023/11/01 03:17:34;;;;;;;17.83;3.88;;;12.90;99.20;;;;;;5008368;28;20057;-84
2023/11/01 03:20:00;;;;;;;13.95;3.83;;;12.90;99.10;;;;;;5002157;28;20084;-83
2023/11/01 03:22:27;;;;;;;15.65;3.65;;;12.90;99.10;;;;;;4999973;28;20026;-87
2023/11/01 03:24:53;;;;;;;14.52;3.78;;;12.90;99.00;;;;;;4999335;28;20091;-81
2023/11/01 03:27:18;;;;;;;13.60;3.53;;;12.90;99.00;;;;;;4997275;28;20038;-88
2023/11/01 03:29:44;;;;;;;14.75;3.53;;;12.90;99.00;;;;;;4999156;28;20057;-86
2023/11/01 03:32:10;;;;;;;12.75;3.88;;;12.90;98.90;;;;;;5008579;28;20030;-87
2023/11/01 03:34:35;;;;;;;17.27;3.97;;;12.90;98.90;;;;;;5019982;28;20017;-87
2023/11/01 03:37:01;;;;;;;14.75;3.83;;;12.90;98.80;;;;;;5017562;28;20056;-87
2023/11/01 03:39:26;;;;;;;22.55;4.60;;;12.80;98.70;;;;;;5016240;28;20022;-83
2023/11/01 03:41:52;;;;;;;13.70;3.75;;;12.80;98.70;;;;;;5018686;28;20044;-88
2023/11/01 03:44:18;;;;;;;16.27;3.88;;;12.80;98.80;;;;;;5020614;28;20064;-88
2023/11/01 03:46:44;;;;;;;17.88;4.05;;;12.80;98.80;;;;;;5049295;28;20049;-86
2023/11/01 03:49:09;;;;;;;12.65;3.33;;;12.80;98.80;;;;;;5018483;28;20064;-84
2023/11/01 03:51:35;;;;;;;18.10;4.15;;;12.80;98.80;;;;;;5015016;28;20208;-87
2023/11/01 03:54:01;;;;;;;12.32;3.53;;;12.80;98.70;;;;;;5001939;28;20108;-87
2023/11/01 03:56:26;;;;;;;14.70;3.88;;;12.80;98.60;;;;;;5016855;28;20076;-87
2023/11/01 03:58:52;;;;;;;16.98;4.40;;;12.80;98.60;;;;;;5017990;28;20045;-89
2023/11/01 04:01:18;;;;;;;12.63;3.50;;;12.80;98.60;;;;;;5026661;28;20033;-85
2023/11/01 04:03:45;;;;;;;15.60;4.15;;;12.70;98.60;;;;;;5039147;28;20136;-86
2023/11/01 04:06:11;;;;;;;13.63;3.60;;;12.80;98.60;;;;;;5025659;28;20063;-87
2023/11/01 04:08:40;;;;;;;15.18;3.65;;;12.80;98.60;;;;;;5003249;28;20101;-85
2023/11/01 04:11:05;;;;;;;16.45;4.32;;;12.70;98.50;;;;;;5004724;28;20033;-88
2023/11/01 04:13:32;;;;;;;19.13;4.25;;;12.70;98.60;;;;;;4997180;28;20030;-89
2023/11/01 04:15:58;;;;;;;18.08;4.07;;;12.80;98.60;;;;;;5014457;28;20041;-85
2023/11/01 04:18:24;;;;;;;17.85;3.88;;;12.70;98.60;;;;;;5018013;28;20034;-84
2023/11/01 04:20:50;;;;;;;16.33;4.10;;;12.80;98.60;;;;;;5004339;28;20036;-89
2023/11/01 04:23:16;;;;;;;18.08;3.95;;;12.80;98.50;;;;;;5026722;28;20105;-85
2023/11/01 04:25:42;;;;;;;16.92;3.92;;;12.80;98.50;;;;;;5038975;28;20033;-85
2023/11/01 04:28:08;;;;;;;14.45;4.00;;;12.80;98.50;;;;;;5030402;28;20037;-84
2023/11/01 04:30:38;;;;;;;18.15;4.68;;;12.80;98.50;;;;;;5019634;28;20068;-89
2023/11/01 04:33:07;;;;;;;12.27;3.40;;;12.80;98.40;;;;;;5019428;28;20521;-89
2023/11/01 04:35:34;;;;;;;17.75;3.72;;;12.80;98.40;;;;;;5016995;28;20042;-89
2023/11/01 04:38:00;;;;;;;16.48;3.88;;;12.80;98.40;;;;;;5018575;28;20025;-86
2023/11/01 04:40:26;;;;;;;17.23;4.28;;;12.80;98.40;;;;;;5020833;28;20022;-88
2023/11/01 04:42:51;;;;;;;14.98;3.38;;;12.80;98.30;;;;;;5039793;28;20025;-88
2023/11/01 04:45:17;;;;;;;16.27;3.88;;;12.80;98.30;;;;;;5017458;28;20045;-89
2023/11/01 04:47:44;;;;;;;17.02;3.67;;;12.80;98.30;;;;;;5022180;28;20422;-89
2023/11/01 04:50:10;;;;;;;17.77;3.85;;;12.80;98.20;;;;;;5024115;28;20025;-85
2023/11/01 04:52:40;;;;;;;17.70;3.80;;;12.80;98.20;;;;;;5022520;28;20140;-87
2023/11/01 04:55:08;;;;;;;15.80;4.35;;;12.70;98.20;;;;;;5039434;28;20131;-85
2023/11/01 04:57:34;;;;;;;15.23;3.95;;;12.80;98.30;;;;;;5037977;28;20060;-85
2023/11/01 05:00:01;;;;;;;16.35;3.58;;;12.70;98.30;;;;;;5035559;28;20030;-87
2023/11/01 05:02:26;;;;;;;13.32;4.68;;;12.80;98.40;;;;;;5020497;28;20124;-89
2023/11/01 05:04:52;;;;;;;17.75;4.10;;;12.70;98.40;;;;;;5018477;28;20180;-86
2023/11/01 05:07:19;;;;;;;16.42;3.40;;;12.70;98.40;;;;;;5016186;28;20073;-88
2023/11/01 05:09:45;;;;;;;18.58;4.90;;;12.80;98.40;;;;;;5012944;28;20032;-88
2023/11/01 05:12:10;;;;;;;18.58;4.28;;;12.80;98.40;;;;;;5015678;28;20394;-88
2023/11/01 05:14:36;;;;;;;16.52;3.70;;;12.80;98.50;;;;;;5018135;28;20036;-89
2023/11/01 05:17:02;;;;;;;24.67;4.60;;;12.80;98.30;;;;;;5016120;28;20455;-84
2023/11/01 05:19:27;;;;;;;17.42;3.60;;;12.80;98.30;;;;;;5019934;28;20353;-90
2023/11/01 05:21:53;;;;;;;14.65;3.78;;;12.80;98.20;;;;;;5017360;28;20036;-83
2023/11/01 05:24:19;;;;;;;14.95;3.78;;;12.90;98.20;;;;;;5019121;28;20091;-87
2023/11/01 05:26:44;;;;;;;12.35;3.72;;;12.90;98.10;;;;;;5015127;28;20060;-89
2023/11/01 05:29:10;;;;;;;21.25;3.95;;;12.80;98.10;;;;;;5013375;28;20427;-86
2023/11/01 05:31:36;;;;;;;15.00;3.70;;;12.80;98.10;;;;;;4995140;28;20034;-83
2023/11/01 05:34:03;;;;;;;14.95;4.22;;;12.80;98.10;;;;;;4995731;28;20022;-89
2023/11/01 05:36:29;;;;;;;17.25;4.18;;;12.80;98.20;;;;;;5011661;28;20057;-87
2023/11/01 05:38:55;;;;;;;18.70;4.25;;;12.80;98.10;;;;;;4995199;28;20022;-88
2023/11/01 05:41:21;;;;;;;16.48;4.05;;;12.80;98.20;;;;;;4999604;28;20046;-91
2023/11/01 05:43:47;;;;;;;17.15;3.95;;;12.80;98.20;;;;;;5000190;28;21034;-84
2023/11/01 05:46:13;;;;;;;19.10;4.22;;;12.90;98.10;;;;;;5002176;28;20057;-90
2023/11/01 05:48:39;;;;;;;16.25;3.60;;;12.90;98.10;;;;;;4998858;28;20038;-90
2023/11/01 05:51:05;;;;;;;18.13;4.43;;;12.90;98.00;;;;;;4998862;28;20042;-88
2023/11/01 05:53:34;;;;;;;19.13;4.60;;;12.90;98.00;;;;;;4995964;28;20037;-88
2023/11/01 05:56:00;;;;;;;14.68;4.32;;;13.00;97.90;;;;;;4997180;28;20117;-88
2023/11/01 05:58:26;;;;;;;15.68;4.00;;;13.00;97.90;;;;;;4994449;28;20038;-89
2023/11/01 06:00:53;;;;;;;18.23;3.95;;;13.00;97.80;;;;;;5013052;28;20587;-87
2023/11/01 06:03:19;;;;;;;10.25;3.15;;;13.00;97.70;;;;;;4996103;28;20038;-87
2023/11/01 06:05:45;;;;;;;16.13;4.28;;;13.00;97.70;;;;;;4995621;28;20307;-85
2023/11/01 06:08:12;;;;;;;18.88;3.83;;;12.90;97.60;;;;;;4997652;28;20136;-88
2023/11/01 06:10:38;;;;;;;13.43;3.80;;;12.90;97.70;;;;;;5000477;28;20018;-85
2023/11/01 06:13:07;;;;;;;19.38;4.15;;;12.90;97.70;;;;;;5001260;28;20065;-85
2023/11/01 06:15:36;;;;;;;17.70;4.10;;;12.90;97.70;;;;;;4997440;28;20077;-89
2023/11/01 06:18:05;;;;;;;16.63;4.60;;;12.90;97.60;;;;;;4994647;28;20039;-87
2023/11/01 06:20:31;;;;;;;15.27;4.20;;;13.00;97.60;;;;;;5000638;28;20074;-88
2023/11/01 06:23:01;;;;;;;14.85;4.28;;;12.90;97.60;;;;;;4997853;28;20068;-90
2023/11/01 06:25:27;;;;;;;17.55;3.72;;;12.90;97.50;;;;;;4999544;28;20046;-88
2023/11/01 06:27:52;;;;;;;15.93;4.20;;;12.90;97.50;;;;;;5000652;28;20046;-88
2023/11/01 06:30:18;;;;;;;13.73;3.45;;;12.90;97.50;;;;;;4997863;28;20374;-90
2023/11/01 06:32:44;;;;;;;17.92;3.83;;;13.00;97.50;;;;;;4993741;28;20022;-86
2023/11/01 06:35:10;;;;;;;16.02;3.88;;;12.90;97.40;;;;;;4997358;28;20042;-88
2023/11/01 06:37:35;;;;;;;14.43;3.95;;;12.90;97.50;;;;;;4997860;28;20483;-89
2023/11/01 06:40:02;;;;;;;15.35;3.97;;;12.90;97.40;;;;;;5002855;28;20043;-85
2023/11/01 06:42:28;;;;;;;16.52;4.20;;;13.00;97.40;;;;;;5004871;28;20434;-87
2023/11/01 06:44:54;;;;;;;15.05;4.65;;;12.90;97.30;;;;;;5015455;28;20544;-89
2023/11/01 06:47:20;;;;;;;12.63;3.40;;;12.90;97.30;;;;;;5004120;28;20030;-87
2023/11/01 06:49:47;;;;;;;10.85;3.17;;;13.00;97.30;;;;;;5006670;28;20038;-88
2023/11/01 06:52:13;;;;;;;11.73;3.70;;;13.00;97.30;;;;;;5017337;28;20064;-85
2023/11/01 06:54:40;;;;;;;20.08;4.40;;;12.90;97.30;;;;;;5018069;28;20052;-89
2023/11/01 06:57:06;;;;;;;15.63;4.32;;;13.00;97.20;;;;;;5031957;28;20121;-89
2023/11/01 06:59:32;;;;;;;14.75;3.45;;;13.00;97.10;;;;;;5003353;28;20026;-86
2023/11/01 07:01:58;;;;;;;14.63;3.45;;;13.00;97.10;;;;;;5027252;28;20065;-83
2023/11/01 07:04:23;;;;;;;17.35;4.00;;;13.00;97.00;;;;;;5026458;28;20026;-87
2023/11/01 07:06:49;;;;;;;18.98;4.15;;;13.00;97.00;;;;;;5023187;28;20032;-86
2023/11/01 07:09:15;;;;;;;16.52;3.55;;;13.00;97.00;;;;;;5020475;28;20049;-88
2023/11/01 07:11:40;;;;;;;14.82;4.10;;;13.00;97.00;;;;;;5001089;28;20081;-86
2023/11/01 07:14:06;;;;;;;17.17;4.50;;;13.10;96.90;;;;;;5003909;28;20104;-86
2023/11/01 07:16:34;;;;;;;14.68;3.38;;;13.10;96.70;;;;;;5005175;28;20053;-87
2023/11/01 07:19:00;;;;;;;17.35;3.75;;;13.10;96.60;;;;;;5022740;28;20474;-84
2023/11/01 07:21:25;;;;;;;17.55;4.68;;;13.10;96.50;;;;;;5022065;28;20038;-89
2023/11/01 07:23:51;;;;;;;15.35;4.65;;;13.10;96.60;;;;;;5039991;28;20018;-88
2023/11/01 07:26:17;;;;;;;11.82;3.65;;;13.10;96.50;;;;;;5028497;28;20338;-88
2023/11/01 07:28:46;;;;;;;15.77;4.60;;;13.10;96.70;;;;;;5020819;28;20029;-87
2023/11/01 07:31:13;;;;;;;22.02;4.90;;;13.10;96.60;;;;;;5017813;28;20026;-88
2023/11/01 07:33:39;;;;;;;13.73;3.80;;;13.10;96.60;;;;;;5008838;28;20049;-87
2023/11/01 07:36:05;;;;;;;18.33;3.92;;;13.10;96.60;;;;;;5015827;28;21696;-86
2023/11/01 07:38:32;;;;;;;14.88;4.53;;;13.10;96.60;;;;;;5017241;28;20046;-88
2023/11/01 07:40:58;;;;;;;15.63;4.20;;;13.10;96.50;;;;;;5020378;28;20068;-88
2023/11/01 07:43:23;;;;;;;11.75;3.95;;;13.10;96.40;;;;;;5002211;28;20058;-84
2023/11/01 07:45:49;;;;;;;15.77;3.60;;;13.20;96.30;;;;;;4997613;28;20034;-85
2023/11/01 07:48:15;;;;;;;15.98;3.35;;;13.20;96.30;;;;;;5030459;28;20045;-89
2023/11/01 07:50:42;;;;;;;13.27;3.88;;;13.20;96.20;;;;;;5008230;28;20064;-91
2023/11/01 07:53:08;;;;;;;15.05;3.40;;;13.30;96.20;;;;;;4996607;28;20046;-85
2023/11/01 07:55:34;;;;;;;13.23;3.92;;;13.30;96.10;;;;;;4992757;28;20053;-87
2023/11/01 07:58:00;;;;;;;12.90;4.18;;;13.40;95.90;;;;;;5012638;28;20026;-88
2023/11/01 08:00:26;;;;;;;15.63;4.00;;;13.40;95.80;;;;;;5007876;28;20479;-88
2023/11/01 08:02:53;;;;;;;12.80;3.72;;;13.40;95.80;;;;;;4995292;28;20030;-89
2023/11/01 08:05:19;;;;;;;16.42;3.70;;;13.40;95.60;;;;;;4997759;28;20129;-88
2023/11/01 08:07:45;;;;;;;13.65;3.95;;;13.40;95.70;;;;;;4994364;28;20041;-89
2023/11/01 08:10:11;;;;;;;16.33;3.97;;;13.30;95.50;;;;;;4998794;28;20030;-89
2023/11/01 08:12:37;;;;;;;14.95;4.30;;;13.40;95.40;;;;;;4991342;28;20034;-87
2023/11/01 08:15:03;;;;;;;17.88;3.67;;;13.40;95.40;;;;;;4994246;28;20053;-87
2023/11/01 08:17:28;;;;;;;12.07;3.38;;;13.50;95.20;;;;;;4990456;28;20038;-85
2023/11/01 08:19:54;;;;;;;15.15;3.15;;;13.60;95.20;;;;;;4997299;28;20037;-88
2023/11/01 08:22:19;;;;;;;11.52;3.10;;;13.60;95.10;;;;;;4991806;28;20036;-89
2023/11/01 08:24:45;;;;;;;9.75;3.20;;;13.60;94.80;;;;;;4995224;28;20380;-87
2023/11/01 08:27:11;;;;;;;16.65;4.05;;;13.60;94.80;;;;;;4994125;28;20080;-86
2023/11/01 08:29:41;;;;;;;12.40;3.42;;;13.70;94.70;;;;;;4995837;28;20081;-88
2023/11/01 08:32:08;;;;;;;10.90;3.47;;;13.70;94.50;;;;;;4997643;28;20037;-87
2023/11/01 08:34:34;;;;;;;10.35;3.10;;;13.60;94.50;;;;;;4996808;28;20605;-88
2023/11/01 08:37:00;;;;;;;11.45;3.40;;;13.70;94.20;;;;;;5009389;28;20041;-84
2023/11/01 08:39:26;;;;;;;14.10;3.28;;;13.80;94.20;;;;;;5014325;28;20106;-83
2023/11/01 08:41:52;;;;;;;14.20;3.85;;;13.80;93.90;;;;;;5014969;28;20118;-85
2023/11/01 08:44:17;;;;;;;14.65;3.40;;;13.90;94.10;;;;;;5021702;28;20021;-83
2023/11/01 08:46:44;;;;;;;10.98;2.92;;;14.00;93.60;;;;;;5035485;28;20630;-81
2023/11/01 08:49:11;;;;;;;12.15;3.05;;;14.10;93.20;;;;;;5040490;28;20025;-86
2023/11/01 08:51:39;;;;;;;12.32;3.28;;;14.10;93.00;;;;;;4999329;28;20054;-89
2023/11/01 08:54:05;;;;;;;14.93;3.40;;;14.20;92.90;;;;;;5001284;28;20555;-88
2023/11/01 08:56:30;;;;;;;16.10;3.47;;;14.40;92.50;;;;;;4994896;28;20033;-87
2023/11/01 08:58:56;;;;;;;16.67;3.33;;;14.60;92.00;;;;;;5023344;28;20025;-83
2023/11/01 09:01:22;;;;;;;12.48;3.53;;;14.60;91.40;;;;;;5019506;28;20037;-86
2023/11/01 09:03:47;;;;;;;11.35;2.95;;;14.60;91.00;;;;;;5014672;28;20026;-80
2023/11/01 09:06:13;;;;;;;11.77;2.80;;;14.60;90.90;;;;;;4994296;28;20687;-82
2023/11/01 09:08:39;;;;;;;8.48;2.85;;;14.70;90.50;;;;;;4995244;28;20516;-76
2023/11/01 09:11:04;;;;;;;8.88;2.35;;;14.80;90.60;;;;;;5006249;28;20087;-75
2023/11/01 09:13:30;;;;;;;10.60;2.70;;;14.70;90.20;;;;;;5017084;28;20056;-78
2023/11/01 09:15:56;;;;;;;8.20;2.40;;;14.70;90.20;;;;;;5020410;28;20042;-75
2023/11/01 09:18:21;;;;;;;9.75;2.90;;;14.60;90.40;;;;;;5009934;28;20043;-78
2023/11/01 09:20:48;;;;;;;10.52;2.75;;;14.80;90.60;;;;;;5017104;28;20034;-74
2023/11/01 09:23:14;;;;;;;10.15;2.55;;;14.90;90.00;;;;;;5010904;28;20041;-75
2023/11/01 09:25:40;;;;;;;15.82;3.15;;;15.00;89.10;;;;;;5017208;28;20445;-76
2023/11/01 09:28:05;;;;;;;11.73;2.67;;;15.10;88.80;;;;;;5019826;28;20049;-76
2023/11/01 09:30:31;;;;;;;11.48;2.83;;;15.10;88.80;;;;;;5017761;28;20398;-75
2023/11/01 09:32:56;;;;;;;8.63;2.50;;;15.00;88.50;;;;;;5013325;28;20237;-74
2023/11/01 09:35:22;;;;;;;14.45;3.10;;;15.10;88.70;;;;;;5012383;28;20132;-76
2023/11/01 09:37:48;;;;;;;10.27;2.72;;;15.10;88.30;;;;;;5012727;28;20056;-76
2023/11/01 09:40:14;;;;;;;10.18;2.50;;;15.10;87.70;;;;;;5011476;28;20444;-75
2023/11/01 09:42:40;;;;;;;10.07;2.90;;;15.10;88.00;;;;;;5009687;28;20537;-74
2023/11/01 09:45:10;;;;;;;13.27;3.10;;;15.00;87.80;;;;;;5014479;28;20487;-76
2023/11/01 09:47:37;;;;;;;12.45;2.40;;;15.00;88.00;;;;;;5012288;28;20045;-76
2023/11/01 09:50:03;;;;;;;12.93;2.75;;;15.00;87.90;;;;;;5012845;28;20124;-79
2023/11/01 09:52:32;;;;;;;14.00;2.97;;;15.00;87.60;;;;;;5012038;28;20129;-78
2023/11/01 09:54:58;;;;;;;11.95;2.78;;;15.00;87.80;;;;;;5010125;28;20505;-77
2023/11/01 09:57:25;;;;;;;9.73;2.80;;;15.00;87.60;;;;;;5009514;28;20025;-76
2023/11/01 09:59:51;;;;;;;9.10;2.42;;;14.90;87.50;;;;;;5010837;28;20033;-77
2023/11/01 10:02:17;;;;;;;10.65;2.80;;;15.10;87.50;;;;;;5006035;28;20033;-77
2023/11/01 10:04:44;;;;;;;10.23;2.60;;;15.20;87.50;;;;;;5013155;28;20556;-76
2023/11/01 10:07:10;;;;;;;9.85;2.88;;;15.40;87.40;;;;;;5014053;28;20136;-77
2023/11/01 10:09:38;;;;;;;12.63;3.10;;;15.40;86.40;;;;;;5015348;28;20071;-77
2023/11/01 10:12:07;;;;;;;9.20;2.50;;;15.40;86.60;;;;;;5013634;28;20068;-80
2023/11/01 10:14:34;;;;;;;6.40;2.08;;;15.30;86.10;;;;;;5015964;28;20032;-79
2023/11/01 10:17:00;;;;;;;9.98;2.90;;;15.50;85.90;;;;;;5018524;28;20253;-78
2023/11/01 10:19:26;;;;;;;8.25;2.20;;;15.60;86.40;;;;;;5015516;28;20136;-78
2023/11/01 10:21:52;;;;;;;11.50;2.80;;;15.60;85.80;;;;;;5014970;28;20036;-78
2023/11/01 10:24:20;;;;;;;9.75;3.35;;;15.60;85.50;;;;;;5013333;28;20047;-82
2023/11/01 10:26:45;;;;;;;10.82;3.15;;;15.60;85.80;;;;;;5016282;28;20512;-77
2023/11/01 10:29:11;;;;;;;8.15;2.85;;;15.70;85.30;;;;;;5018797;28;20496;-77
2023/11/01 10:31:37;;;;;;;8.45;3.15;;;15.90;85.00;;;;;;5015052;28;20596;-76
2023/11/01 10:34:13;;;;;;;9.20;2.63;;;15.90;85.00;;;;;;5017742;28;20449;-76
2023/11/01 10:36:56;;;;;;;7.15;2.50;;;15.80;84.40;;;;;;5007340;28;20936;-76
2023/11/01 10:39:22;;;;;;;8.80;2.85;;;15.70;84.80;;;;;;5015347;28;21491;-76
2023/11/01 10:41:50;;;;;;;9.02;3.17;;;15.70;85.20;;;;;;5015550;28;20053;-75
2023/11/01 10:44:17;;;;;;;9.07;3.10;;;15.60;85.20;;;;;;5015946;28;20357;-75
2023/11/01 10:46:43;;;;;;;14.50;7.28;;;15.50;84.80;;;;;;5003020;28;20029;-77
2023/11/01 10:49:12;;;;;;;26.20;14.75;;;15.30;85.10;;;;;;5006573;28;20089;-77
2023/11/01 10:51:41;;;;;;;11.70;5.45;;;15.20;85.70;;;;;;5012596;28;20132;-76
2023/11/01 10:54:12;;;;;;;24.73;12.70;;;15.10;86.10;;;;;;5001464;28;20449;-77
2023/11/01 10:56:39;;;;;;;13.50;8.02;;;15.20;86.50;;;;;;5013355;28;20112;-82
2023/11/01 10:59:29;;;;;;;21.80;4.03;;;15.20;86.10;;;;;;5013489;28;20025;-77
2023/11/01 11:02:16;;;;;;;23.33;9.52;;;15.10;85.60;;;;;;5014430;28;20553;-77
2023/11/01 11:05:04;;;;;;;12.10;5.03;;;15.00;85.90;;;;;;5016127;28;20041;-78
2023/11/01 11:07:48;;;;;;;12.95;6.15;;;14.90;86.30;;;;;;5018763;28;20033;-77
2023/11/01 11:10:26;;;;;;;11.32;3.63;;;14.80;86.30;;;;;;5022471;28;20030;-77
2023/11/01 11:13:31;;;;;;;12.30;5.00;;;14.80;86.90;;;;;;5021023;28;20053;-78
2023/11/01 11:15:59;;;;;;;8.07;2.80;;;14.70;87.10;;;;;;5015187;28;20041;-77
2023/11/01 11:18:28;;;;;;;10.65;3.00;;;14.70;87.10;;;;;;5012324;28;20049;-78
2023/11/01 11:20:58;;;;;;;9.65;2.45;;;14.80;86.90;;;;;;5014897;28;20035;-77
2023/11/01 11:23:37;;;;;;;11.57;3.20;;;14.80;86.90;;;;;;5013246;28;20505;-77
2023/11/01 11:26:04;;;;;;;9.15;3.28;;;14.80;86.60;;;;;;5014884;28;21121;-77
2023/11/01 11:28:39;;;;;;;12.05;3.55;;;14.80;86.50;;;;;;5010156;28;20115;-77
2023/11/01 11:31:17;;;;;;;14.27;4.70;;;14.80;87.00;;;;;;5006279;28;21220;-77
2023/11/01 11:33:49;;;;;;;8.38;2.90;;;15.10;86.60;;;;;;5016826;28;20037;-78
2023/11/01 11:36:25;;;;;;;8.50;2.72;;;15.60;85.80;;;;;;5013399;28;20077;-76
2023/11/01 11:38:55;;;;;;;9.93;3.05;;;15.80;84.80;;;;;;5013693;28;20017;-75
2023/11/01 11:41:22;;;;;;;9.55;2.95;;;15.90;84.30;;;;;;5010732;28;20506;-78
2023/11/01 11:44:02;;;;;;;9.02;2.85;;;16.10;83.90;;;;;;5006796;28;20022;-77
2023/11/01 11:46:40;;;;;;;10.27;2.40;;;16.30;82.90;;;;;;5009931;28;20033;-77
2023/11/01 11:49:23;;;;;;;8.25;2.65;;;16.40;82.80;;;;;;5022142;28;20037;-76
2023/11/01 11:52:04;;;;;;;10.52;2.60;;;16.40;82.80;;;;;;5016604;28;20085;-78
2023/11/01 11:54:32;;;;;;;9.63;2.70;;;16.30;82.30;;;;;;5015045;28;20121;-79
2023/11/01 11:57:17;;;;;;;10.55;3.30;;;16.40;82.70;;;;;;5007447;28;20102;-77
2023/11/01 11:59:43;;;;;;;8.43;2.95;;;16.30;82.70;;;;;;5015750;28;20068;-78
2023/11/01 12:02:12;;;;;;;8.50;2.97;;;16.30;82.60;;;;;;5007778;28;20557;-77
2023/11/01 12:04:39;;;;;;;12.55;2.97;;;16.30;82.40;;;;;;5012148;28;20466;-77
2023/11/01 12:07:05;;;;;;;10.73;3.65;;;15.80;82.90;;;;;;5016015;28;20065;-78
2023/11/01 12:09:31;;;;;;;11.80;2.53;;;15.70;83.80;;;;;;5013780;28;20118;-78
2023/11/01 12:12:09;;;;;;;9.18;2.60;;;15.60;83.60;;;;;;5017332;28;20103;-78
2023/11/01 12:14:35;;;;;;;8.32;2.30;;;15.40;84.10;;;;;;5013080;28;20152;-78
2023/11/01 12:17:04;;;;;;;8.23;2.03;;;15.40;84.70;;;;;;5014407;28;20045;-78
2023/11/01 12:19:31;;;;;;;9.38;2.67;;;15.30;84.70;;;;;;5011659;28;20053;-77
2023/11/01 12:21:58;;;;;;;9.52;2.97;;;15.20;85.10;;;;;;5010237;28;20033;-76
2023/11/01 12:24:28;;;;;;;7.15;2.42;;;15.10;85.50;;;;;;5015831;28;20446;-76
2023/11/01 12:27:07;;;;;;;6.55;2.17;;;15.10;85.50;;;;;;5013311;28;20611;-77
2023/11/01 12:29:46;;;;;;;10.68;2.72;;;15.10;85.50;;;;;;5011649;28;20032;-78
2023/11/01 12:32:16;;;;;;;10.15;2.33;;;15.10;85.60;;;;;;5013124;28;20065;-77
2023/11/01 12:34:48;;;;;;;8.23;2.63;;;15.00;85.80;;;;;;5009941;28;20045;-78
2023/11/01 12:37:19;;;;;;;9.60;3.03;;;15.00;86.00;;;;;;5013038;28;20537;-77